sensor_id;sensor_type;location;lat;lon;timestamp;temperature;humidity
51853;DHT22;37894;53.172;6.598;2023-06-26T00:02:14;22.30;97.80
51853;DHT22;37894;53.172;6.598;2023-06-26T00:04:42;22.30;98.00
51853;DHT22;37894;53.172;6.598;2023-06-26T00:07:08;22.30;98.00
51853;DHT22;37894;53.172;6.598;2023-06-26T00:09:34;22.30;98.20
51853;DHT22;37894;53.172;6.598;2023-06-26T00:12:00;22.20;98.20
51853;DHT22;37894;53.172;6.598;2023-06-26T00:14:26;22.20;98.20
51853;DHT22;37894;53.172;6.598;2023-06-26T00:16:52;22.20;98.30
51853;DHT22;37894;53.172;6.598;2023-06-26T00:19:18;22.20;98.60
51853;DHT22;37894;53.172;6.598;2023-06-26T00:21:44;22.20;98.70
51853;DHT22;37894;53.172;6.598;2023-06-26T00:24:13;22.10;98.60
51853;DHT22;37894;53.172;6.598;2023-06-26T00:26:38;22.20;98.90
51853;DHT22;37894;53.172;6.598;2023-06-26T00:29:04;22.20;99.00
51853;DHT22;37894;53.172;6.598;2023-06-26T00:31:30;22.20;98.90
51853;DHT22;37894;53.172;6.598;2023-06-26T00:33:56;22.20;98.80
51853;DHT22;37894;53.172;6.598;2023-06-26T00:36:21;22.20;98.70
51853;DHT22;37894;53.172;6.598;2023-06-26T00:38:52;22.20;98.70
51853;DHT22;37894;53.172;6.598;2023-06-26T00:41:18;22.20;98.60
51853;DHT22;37894;53.172;6.598;2023-06-26T00:43:44;22.20;98.60
51853;DHT22;37894;53.172;6.598;2023-06-26T00:46:12;22.30;98.70
51853;DHT22;37894;53.172;6.598;2023-06-26T00:48:39;22.20;98.70
51853;DHT22;37894;53.172;6.598;2023-06-26T00:51:05;22.20;98.90
51853;DHT22;37894;53.172;6.598;2023-06-26T00:53:31;22.20;98.90
51853;DHT22;37894;53.172;6.598;2023-06-26T00:55:58;22.20;99.10
51853;DHT22;37894;53.172;6.598;2023-06-26T00:58:24;22.20;99.00
51853;DHT22;37894;53.172;6.598;2023-06-26T01:00:53;22.20;99.10
51853;DHT22;37894;53.172;6.598;2023-06-26T01:03:23;22.20;99.10
51853;DHT22;37894;53.172;6.598;2023-06-26T01:05:51;22.20;99.10
51853;DHT22;37894;53.172;6.598;2023-06-26T01:08:18;22.10;99.30
51853;DHT22;37894;53.172;6.598;2023-06-26T01:10:44;22.10;99.40
51853;DHT22;37894;53.172;6.598;2023-06-26T01:13:12;22.10;99.60
51853;DHT22;37894;53.172;6.598;2023-06-26T01:15:38;22.10;99.80
51853;DHT22;37894;53.172;6.598;2023-06-26T01:18:05;22.10;99.80
51853;DHT22;37894;53.172;6.598;2023-06-26T01:20:38;22.10;99.90
51853;DHT22;37894;53.172;6.598;2023-06-26T01:23:31;22.10;99.90
51853;DHT22;37894;53.172;6.598;2023-06-26T01:26:15;22.10;99.90
51853;DHT22;37894;53.172;6.598;2023-06-26T01:28:43;22.10;99.90
51853;DHT22;37894;53.172;6.598;2023-06-26T01:31:10;22.10;99.90
51853;DHT22;37894;53.172;6.598;2023-06-26T01:33:37;22.00;99.90
51853;DHT22;37894;53.172;6.598;2023-06-26T01:36:03;22.00;99.90
51853;DHT22;37894;53.172;6.598;2023-06-26T01:38:29;22.00;99.90
51853;DHT22;37894;53.172;6.598;2023-06-26T01:40:55;22.00;99.90
51853;DHT22;37894;53.172;6.598;2023-06-26T01:43:41;21.90;99.90
51853;DHT22;37894;53.172;6.598;2023-06-26T01:46:16;21.90;99.90
51853;DHT22;37894;53.172;6.598;2023-06-26T01:49:02;21.90;99.90
51853;DHT22;37894;53.172;6.598;2023-06-26T01:51:37;21.80;99.90
51853;DHT22;37894;53.172;6.598;2023-06-26T01:54:06;21.80;99.90
51853;DHT22;37894;53.172;6.598;2023-06-26T01:56:37;21.70;99.90
51853;DHT22;37894;53.172;6.598;2023-06-26T01:59:04;21.70;99.90
51853;DHT22;37894;53.172;6.598;2023-06-26T02:01:31;21.70;99.90
51853;DHT22;37894;53.172;6.598;2023-06-26T02:03:59;21.70;99.90
51853;DHT22;37894;53.172;6.598;2023-06-26T02:06:25;21.70;99.90
51853;DHT22;37894;53.172;6.598;2023-06-26T02:08:50;21.60;99.90
51853;DHT22;37894;53.172;6.598;2023-06-26T02:11:16;21.60;99.90
51853;DHT22;37894;53.172;6.598;2023-06-26T02:13:42;21.60;99.90
51853;DHT22;37894;53.172;6.598;2023-06-26T02:16:07;21.60;99.90
51853;DHT22;37894;53.172;6.598;2023-06-26T02:18:33;21.50;99.90
51853;DHT22;37894;53.172;6.598;2023-06-26T02:20:59;21.50;99.90
51853;DHT22;37894;53.172;6.598;2023-06-26T02:23:24;21.50;99.90
51853;DHT22;37894;53.172;6.598;2023-06-26T02:25:50;21.50;99.90
51853;DHT22;37894;53.172;6.598;2023-06-26T02:28:16;21.40;99.90
51853;DHT22;37894;53.172;6.598;2023-06-26T02:30:41;21.40;99.90
51853;DHT22;37894;53.172;6.598;2023-06-26T02:33:08;21.40;99.90
51853;DHT22;37894;53.172;6.598;2023-06-26T02:35:34;21.30;99.90
51853;DHT22;37894;53.172;6.598;2023-06-26T02:37:59;21.30;99.90
51853;DHT22;37894;53.172;6.598;2023-06-26T02:40:25;21.30;99.90
51853;DHT22;37894;53.172;6.598;2023-06-26T02:42:51;21.20;99.90
51853;DHT22;37894;53.172;6.598;2023-06-26T02:45:16;21.20;99.90
51853;DHT22;37894;53.172;6.598;2023-06-26T02:47:42;21.20;99.90
51853;DHT22;37894;53.172;6.598;2023-06-26T02:50:08;21.10;99.90
51853;DHT22;37894;53.172;6.598;2023-06-26T02:52:34;21.10;99.90
51853;DHT22;37894;53.172;6.598;2023-06-26T02:54:59;21.10;99.90
51853;DHT22;37894;53.172;6.598;2023-06-26T02:57:25;21.10;99.90
51853;DHT22;37894;53.172;6.598;2023-06-26T02:59:51;21.10;99.90
51853;DHT22;37894;53.172;6.598;2023-06-26T03:02:16;21.10;99.90
51853;DHT22;37894;53.172;6.598;2023-06-26T03:04:42;21.10;99.90
51853;DHT22;37894;53.172;6.598;2023-06-26T03:07:08;21.00;99.90
51853;DHT22;37894;53.172;6.598;2023-06-26T03:09:34;21.10;99.90
51853;DHT22;37894;53.172;6.598;2023-06-26T03:12:00;21.10;99.90
51853;DHT22;37894;53.172;6.598;2023-06-26T03:14:26;21.10;99.90
51853;DHT22;37894;53.172;6.598;2023-06-26T03:16:55;21.10;99.90
51853;DHT22;37894;53.172;6.598;2023-06-26T03:19:23;21.10;99.90
51853;DHT22;37894;53.172;6.598;2023-06-26T03:21:49;21.10;99.90
51853;DHT22;37894;53.172;6.598;2023-06-26T03:24:15;21.10;99.90
51853;DHT22;37894;53.172;6.598;2023-06-26T03:26:40;21.20;99.90
51853;DHT22;37894;53.172;6.598;2023-06-26T03:29:06;21.20;99.90
51853;DHT22;37894;53.172;6.598;2023-06-26T03:31:32;21.10;99.90
51853;DHT22;37894;53.172;6.598;2023-06-26T03:33:57;21.20;99.90
51853;DHT22;37894;53.172;6.598;2023-06-26T03:36:23;21.20;99.90
51853;DHT22;37894;53.172;6.598;2023-06-26T03:38:49;21.20;99.90
51853;DHT22;37894;53.172;6.598;2023-06-26T03:41:14;21.20;99.90
51853;DHT22;37894;53.172;6.598;2023-06-26T03:43:40;21.10;99.90
51853;DHT22;37894;53.172;6.598;2023-06-26T03:46:06;21.20;99.90
51853;DHT22;37894;53.172;6.598;2023-06-26T03:48:31;21.10;99.90
51853;DHT22;37894;53.172;6.598;2023-06-26T03:50:57;21.20;99.90
51853;DHT22;37894;53.172;6.598;2023-06-26T03:53:23;21.10;99.90
51853;DHT22;37894;53.172;6.598;2023-06-26T03:55:49;21.20;99.90
51853;DHT22;37894;53.172;6.598;2023-06-26T03:58:14;21.10;99.90
51853;DHT22;37894;53.172;6.598;2023-06-26T04:00:40;21.20;99.90
51853;DHT22;37894;53.172;6.598;2023-06-26T04:03:06;21.20;99.90
51853;DHT22;37894;53.172;6.598;2023-06-26T04:05:31;21.20;99.90
51853;DHT22;37894;53.172;6.598;2023-06-26T04:07:57;21.10;99.90
51853;DHT22;37894;53.172;6.598;2023-06-26T04:10:23;21.10;99.90
51853;DHT22;37894;53.172;6.598;2023-06-26T04:12:49;21.10;99.90
51853;DHT22;37894;53.172;6.598;2023-06-26T04:15:14;21.10;99.90
51853;DHT22;37894;53.172;6.598;2023-06-26T04:17:40;21.10;99.90
51853;DHT22;37894;53.172;6.598;2023-06-26T04:20:06;21.10;99.90
51853;DHT22;37894;53.172;6.598;2023-06-26T04:22:33;21.00;99.90
51853;DHT22;37894;53.172;6.598;2023-06-26T04:25:02;21.00;99.90
51853;DHT22;37894;53.172;6.598;2023-06-26T04:27:28;21.00;99.90
51853;DHT22;37894;53.172;6.598;2023-06-26T04:29:54;21.00;99.90
51853;DHT22;37894;53.172;6.598;2023-06-26T04:32:19;21.10;99.90
51853;DHT22;37894;53.172;6.598;2023-06-26T04:34:45;21.10;99.90
51853;DHT22;37894;53.172;6.598;2023-06-26T04:37:13;21.10;99.90
51853;DHT22;37894;53.172;6.598;2023-06-26T04:39:41;21.20;99.90
51853;DHT22;37894;53.172;6.598;2023-06-26T04:42:07;21.30;99.90
51853;DHT22;37894;53.172;6.598;2023-06-26T04:44:33;21.30;99.90
51853;DHT22;37894;53.172;6.598;2023-06-26T04:46:59;21.40;99.90
51853;DHT22;37894;53.172;6.598;2023-06-26T04:49:25;21.40;99.90
51853;DHT22;37894;53.172;6.598;2023-06-26T04:51:51;21.60;99.90
51853;DHT22;37894;53.172;6.598;2023-06-26T04:54:17;21.60;99.90
51853;DHT22;37894;53.172;6.598;2023-06-26T04:56:42;21.70;99.90
51853;DHT22;37894;53.172;6.598;2023-06-26T04:59:10;21.70;99.90
51853;DHT22;37894;53.172;6.598;2023-06-26T05:01:39;21.70;99.90
51853;DHT22;37894;53.172;6.598;2023-06-26T05:04:05;21.70;99.90
51853;DHT22;37894;53.172;6.598;2023-06-26T05:06:31;21.60;99.90
51853;DHT22;37894;53.172;6.598;2023-06-26T05:08:57;21.60;99.90
51853;DHT22;37894;53.172;6.598;2023-06-26T05:11:24;21.60;99.90
51853;DHT22;37894;53.172;6.598;2023-06-26T05:13:49;21.60;99.90
51853;DHT22;37894;53.172;6.598;2023-06-26T05:16:15;21.50;99.90
51853;DHT22;37894;53.172;6.598;2023-06-26T05:18:41;21.50;99.90
51853;DHT22;37894;53.172;6.598;2023-06-26T05:21:07;21.40;99.90
51853;DHT22;37894;53.172;6.598;2023-06-26T05:23:34;21.40;99.90
51853;DHT22;37894;53.172;6.598;2023-06-26T05:26:03;21.30;99.90
51853;DHT22;37894;53.172;6.598;2023-06-26T05:28:30;21.30;99.90
51853;DHT22;37894;53.172;6.598;2023-06-26T05:30:57;21.30;99.90
51853;DHT22;37894;53.172;6.598;2023-06-26T05:33:25;21.20;99.90
51853;DHT22;37894;53.172;6.598;2023-06-26T05:35:52;21.10;99.90
51853;DHT22;37894;53.172;6.598;2023-06-26T05:38:19;21.10;99.90
51853;DHT22;37894;53.172;6.598;2023-06-26T05:40:45;21.10;99.90
51853;DHT22;37894;53.172;6.598;2023-06-26T05:43:11;21.00;99.90
51853;DHT22;37894;53.172;6.598;2023-06-26T05:45:37;21.00;99.90
51853;DHT22;37894;53.172;6.598;2023-06-26T05:48:03;20.90;99.90
51853;DHT22;37894;53.172;6.598;2023-06-26T05:50:29;20.80;99.90
51853;DHT22;37894;53.172;6.598;2023-06-26T05:52:55;20.80;99.90
51853;DHT22;37894;53.172;6.598;2023-06-26T05:55:21;21.70;99.90
51853;DHT22;37894;53.172;6.598;2023-06-26T05:57:47;20.70;99.90
51853;DHT22;37894;53.172;6.598;2023-06-26T06:00:13;20.70;99.90
51853;DHT22;37894;53.172;6.598;2023-06-26T06:02:40;20.70;99.90
51853;DHT22;37894;53.172;6.598;2023-06-26T06:05:07;20.60;99.90
51853;DHT22;37894;53.172;6.598;2023-06-26T06:07:33;20.60;99.90
51853;DHT22;37894;53.172;6.598;2023-06-26T06:09:59;20.50;99.90
51853;DHT22;37894;53.172;6.598;2023-06-26T06:12:25;20.50;99.90
51853;DHT22;37894;53.172;6.598;2023-06-26T06:14:51;20.50;99.90
51853;DHT22;37894;53.172;6.598;2023-06-26T06:17:17;20.60;99.90
51853;DHT22;37894;53.172;6.598;2023-06-26T06:19:43;20.70;99.90
51853;DHT22;37894;53.172;6.598;2023-06-26T06:22:09;20.70;99.90
51853;DHT22;37894;53.172;6.598;2023-06-26T06:24:34;20.70;99.90
51853;DHT22;37894;53.172;6.598;2023-06-26T06:27:00;20.80;99.90
51853;DHT22;37894;53.172;6.598;2023-06-26T06:29:26;20.90;99.90
51853;DHT22;37894;53.172;6.598;2023-06-26T06:31:51;20.80;99.90
51853;DHT22;37894;53.172;6.598;2023-06-26T06:34:17;21.00;99.90
51853;DHT22;37894;53.172;6.598;2023-06-26T06:36:43;21.10;99.90
51853;DHT22;37894;53.172;6.598;2023-06-26T06:39:08;21.20;99.90
51853;DHT22;37894;53.172;6.598;2023-06-26T06:41:34;21.30;99.90
51853;DHT22;37894;53.172;6.598;2023-06-26T06:44:00;21.40;99.90
51853;DHT22;37894;53.172;6.598;2023-06-26T06:46:25;21.60;99.90
51853;DHT22;37894;53.172;6.598;2023-06-26T06:48:53;21.60;99.90
51853;DHT22;37894;53.172;6.598;2023-06-26T06:51:18;21.80;99.90
51853;DHT22;37894;53.172;6.598;2023-06-26T06:53:44;21.90;99.90
51853;DHT22;37894;53.172;6.598;2023-06-26T06:56:10;22.10;99.90
51853;DHT22;37894;53.172;6.598;2023-06-26T06:58:35;22.20;99.90
51853;DHT22;37894;53.172;6.598;2023-06-26T07:01:01;22.30;99.90
51853;DHT22;37894;53.172;6.598;2023-06-26T07:03:30;22.40;99.90
51853;DHT22;37894;53.172;6.598;2023-06-26T07:05:56;22.40;99.90
51853;DHT22;37894;53.172;6.598;2023-06-26T07:08:21;22.50;99.90
51853;DHT22;37894;53.172;6.598;2023-06-26T07:10:47;22.60;99.90
51853;DHT22;37894;53.172;6.598;2023-06-26T07:13:13;22.70;99.90
51853;DHT22;37894;53.172;6.598;2023-06-26T07:15:39;22.70;99.90
51853;DHT22;37894;53.172;6.598;2023-06-26T07:18:04;22.80;99.90
51853;DHT22;37894;53.172;6.598;2023-06-26T07:20:30;23.00;99.90
51853;DHT22;37894;53.172;6.598;2023-06-26T07:22:56;23.20;99.90
51853;DHT22;37894;53.172;6.598;2023-06-26T07:25:21;23.30;99.90
51853;DHT22;37894;53.172;6.598;2023-06-26T07:27:47;23.40;99.90
51853;DHT22;37894;53.172;6.598;2023-06-26T07:30:13;23.40;99.90
51853;DHT22;37894;53.172;6.598;2023-06-26T07:32:39;23.50;99.90
51853;DHT22;37894;53.172;6.598;2023-06-26T07:35:06;23.50;99.90
51853;DHT22;37894;53.172;6.598;2023-06-26T07:37:32;23.70;99.90
51853;DHT22;37894;53.172;6.598;2023-06-26T07:39:58;23.80;99.90
51853;DHT22;37894;53.172;6.598;2023-06-26T07:42:23;23.90;99.90
51853;DHT22;37894;53.172;6.598;2023-06-26T07:44:49;24.00;99.90
51853;DHT22;37894;53.172;6.598;2023-06-26T07:47:15;24.00;99.90
51853;DHT22;37894;53.172;6.598;2023-06-26T07:49:40;24.00;99.90
51853;DHT22;37894;53.172;6.598;2023-06-26T07:52:07;23.90;99.90
51853;DHT22;37894;53.172;6.598;2023-06-26T07:54:35;23.90;99.90
51853;DHT22;37894;53.172;6.598;2023-06-26T07:57:02;23.80;99.90
51853;DHT22;37894;53.172;6.598;2023-06-26T07:59:29;23.70;99.90
51853;DHT22;37894;53.172;6.598;2023-06-26T08:01:56;23.80;99.90
51853;DHT22;37894;53.172;6.598;2023-06-26T08:04:24;23.90;99.90
51853;DHT22;37894;53.172;6.598;2023-06-26T08:06:54;23.90;99.90
51853;DHT22;37894;53.172;6.598;2023-06-26T08:09:22;23.90;99.90
51853;DHT22;37894;53.172;6.598;2023-06-26T08:11:48;24.00;99.90
51853;DHT22;37894;53.172;6.598;2023-06-26T08:14:15;24.00;99.90
51853;DHT22;37894;53.172;6.598;2023-06-26T08:16:42;24.00;99.90
51853;DHT22;37894;53.172;6.598;2023-06-26T08:19:08;24.00;99.90
51853;DHT22;37894;53.172;6.598;2023-06-26T08:21:34;24.00;99.90
51853;DHT22;37894;53.172;6.598;2023-06-26T08:24:00;23.90;99.90
51853;DHT22;37894;53.172;6.598;2023-06-26T08:26:25;23.90;99.90
51853;DHT22;37894;53.172;6.598;2023-06-26T08:28:51;23.80;99.90
51853;DHT22;37894;53.172;6.598;2023-06-26T08:31:17;23.70;99.90
51853;DHT22;37894;53.172;6.598;2023-06-26T08:33:43;23.60;99.90
51853;DHT22;37894;53.172;6.598;2023-06-26T08:36:09;23.80;99.90
51853;DHT22;37894;53.172;6.598;2023-06-26T08:38:35;23.80;99.90
51853;DHT22;37894;53.172;6.598;2023-06-26T08:41:00;23.80;99.90
51853;DHT22;37894;53.172;6.598;2023-06-26T08:43:26;23.80;99.90
51853;DHT22;37894;53.172;6.598;2023-06-26T08:45:53;23.90;99.90
51853;DHT22;37894;53.172;6.598;2023-06-26T08:48:21;24.10;99.90
51853;DHT22;37894;53.172;6.598;2023-06-26T08:50:49;24.10;99.90
51853;DHT22;37894;53.172;6.598;2023-06-26T08:53:33;24.30;99.80
51853;DHT22;37894;53.172;6.598;2023-06-26T08:56:00;24.40;98.90
51853;DHT22;37894;53.172;6.598;2023-06-26T08:58:27;24.30;99.30
51853;DHT22;37894;53.172;6.598;2023-06-26T09:00:53;24.40;99.30
51853;DHT22;37894;53.172;6.598;2023-06-26T09:03:21;24.20;99.30
51853;DHT22;37894;53.172;6.598;2023-06-26T09:05:48;24.10;99.20
51853;DHT22;37894;53.172;6.598;2023-06-26T09:08:14;24.10;99.20
51853;DHT22;37894;53.172;6.598;2023-06-26T09:10:40;24.10;99.10
51853;DHT22;37894;53.172;6.598;2023-06-26T09:13:06;24.30;98.60
51853;DHT22;37894;53.172;6.598;2023-06-26T09:15:39;24.50;98.30
51853;DHT22;37894;53.172;6.598;2023-06-26T09:18:07;24.60;97.70
51853;DHT22;37894;53.172;6.598;2023-06-26T09:20:33;24.60;97.50
51853;DHT22;37894;53.172;6.598;2023-06-26T09:22:59;24.50;97.70
51853;DHT22;37894;53.172;6.598;2023-06-26T09:25:26;24.40;97.80
51853;DHT22;37894;53.172;6.598;2023-06-26T09:27:52;24.40;98.10
51853;DHT22;37894;53.172;6.598;2023-06-26T09:30:18;24.60;98.30
51853;DHT22;37894;53.172;6.598;2023-06-26T09:32:44;24.70;97.10
51853;DHT22;37894;53.172;6.598;2023-06-26T09:35:10;25.00;97.40
51853;DHT22;37894;53.172;6.598;2023-06-26T09:37:37;25.00;96.50
51853;DHT22;37894;53.172;6.598;2023-06-26T09:40:03;24.80;95.90
51853;DHT22;37894;53.172;6.598;2023-06-26T09:42:30;24.60;95.90
51853;DHT22;37894;53.172;6.598;2023-06-26T09:44:56;24.40;95.70
51853;DHT22;37894;53.172;6.598;2023-06-26T09:47:22;24.10;95.60
51853;DHT22;37894;53.172;6.598;2023-06-26T09:49:48;24.20;96.30
51853;DHT22;37894;53.172;6.598;2023-06-26T09:52:17;24.40;96.80
51853;DHT22;37894;53.172;6.598;2023-06-26T09:54:44;24.50;97.00
51853;DHT22;37894;53.172;6.598;2023-06-26T09:57:14;24.40;96.40
51853;DHT22;37894;53.172;6.598;2023-06-26T09:59:41;24.20;96.20
51853;DHT22;37894;53.172;6.598;2023-06-26T10:02:08;24.10;96.10
51853;DHT22;37894;53.172;6.598;2023-06-26T10:04:34;24.10;96.40
51853;DHT22;37894;53.172;6.598;2023-06-26T10:07:10;24.10;96.30
51853;DHT22;37894;53.172;6.598;2023-06-26T10:09:41;23.90;96.10
51853;DHT22;37894;53.172;6.598;2023-06-26T10:12:11;23.80;96.40
51853;DHT22;37894;53.172;6.598;2023-06-26T10:14:38;24.00;96.90
51853;DHT22;37894;53.172;6.598;2023-06-26T10:17:10;24.20;96.20
51853;DHT22;37894;53.172;6.598;2023-06-26T10:19:38;24.30;96.30
51853;DHT22;37894;53.172;6.598;2023-06-26T10:22:05;24.30;96.00
51853;DHT22;37894;53.172;6.598;2023-06-26T10:24:35;24.30;95.60
51853;DHT22;37894;53.172;6.598;2023-06-26T10:27:28;24.30;94.50
51853;DHT22;37894;53.172;6.598;2023-06-26T10:29:57;24.50;94.70
51853;DHT22;37894;53.172;6.598;2023-06-26T10:32:26;24.60;95.00
51853;DHT22;37894;53.172;6.598;2023-06-26T10:34:52;24.60;94.20
51853;DHT22;37894;53.172;6.598;2023-06-26T10:37:18;24.50;93.00
51853;DHT22;37894;53.172;6.598;2023-06-26T10:39:48;24.60;93.70
51853;DHT22;37894;53.172;6.598;2023-06-26T10:42:22;24.70;93.70
51853;DHT22;37894;53.172;6.598;2023-06-26T10:45:19;24.90;93.80
51853;DHT22;37894;53.172;6.598;2023-06-26T10:47:52;25.10;93.30
51853;DHT22;37894;53.172;6.598;2023-06-26T10:53:07;25.50;92.80
51853;DHT22;37894;53.172;6.598;2023-06-26T10:55:33;25.70;91.80
51853;DHT22;37894;53.172;6.598;2023-06-26T10:57:58;25.80;91.70
51853;DHT22;37894;53.172;6.598;2023-06-26T11:00:24;25.90;91.40
51853;DHT22;37894;53.172;6.598;2023-06-26T11:02:50;25.90;91.20
51853;DHT22;37894;53.172;6.598;2023-06-26T11:05:32;26.20;91.50
51853;DHT22;37894;53.172;6.598;2023-06-26T11:08:16;26.30;90.70
51853;DHT22;37894;53.172;6.598;2023-06-26T11:10:52;26.30;90.10
51853;DHT22;37894;53.172;6.598;2023-06-26T11:13:19;26.20;88.20
51853;DHT22;37894;53.172;6.598;2023-06-26T11:15:46;26.10;90.40
51853;DHT22;37894;53.172;6.598;2023-06-26T11:18:13;26.10;90.20
51853;DHT22;37894;53.172;6.598;2023-06-26T11:20:40;26.10;89.20
51853;DHT22;37894;53.172;6.598;2023-06-26T11:23:09;26.10;90.10
51853;DHT22;37894;53.172;6.598;2023-06-26T11:25:37;26.20;90.30
51853;DHT22;37894;53.172;6.598;2023-06-26T11:28:04;26.30;89.60
51853;DHT22;37894;53.172;6.598;2023-06-26T11:30:31;26.40;88.50
51853;DHT22;37894;53.172;6.598;2023-06-26T11:33:07;26.40;87.10
51853;DHT22;37894;53.172;6.598;2023-06-26T11:35:33;26.30;86.30
51853;DHT22;37894;53.172;6.598;2023-06-26T11:38:00;26.40;87.50
51853;DHT22;37894;53.172;6.598;2023-06-26T11:40:30;26.40;85.10
51853;DHT22;37894;53.172;6.598;2023-06-26T11:42:59;26.60;86.80
51853;DHT22;37894;53.172;6.598;2023-06-26T11:45:28;26.30;85.80
51853;DHT22;37894;53.172;6.598;2023-06-26T11:47:55;26.40;86.80
51853;DHT22;37894;53.172;6.598;2023-06-26T11:50:22;26.40;85.90
51853;DHT22;37894;53.172;6.598;2023-06-26T11:52:58;26.30;85.80
51853;DHT22;37894;53.172;6.598;2023-06-26T11:55:25;26.40;84.70
51853;DHT22;37894;53.172;6.598;2023-06-26T11:57:55;26.50;85.10
51853;DHT22;37894;53.172;6.598;2023-06-26T12:00:22;26.50;83.30
51853;DHT22;37894;53.172;6.598;2023-06-26T12:02:49;26.50;82.20
51853;DHT22;37894;53.172;6.598;2023-06-26T12:05:18;26.60;83.10
51853;DHT22;37894;53.172;6.598;2023-06-26T12:07:48;26.50;81.10
51853;DHT22;37894;53.172;6.598;2023-06-26T12:10:15;26.60;81.10
51853;DHT22;37894;53.172;6.598;2023-06-26T12:12:42;26.70;82.80
51853;DHT22;37894;53.172;6.598;2023-06-26T12:15:10;26.70;81.30
51853;DHT22;37894;53.172;6.598;2023-06-26T12:17:38;26.70;80.80
51853;DHT22;37894;53.172;6.598;2023-06-26T12:20:21;26.80;81.70
51853;DHT22;37894;53.172;6.598;2023-06-26T12:22:47;26.70;79.20
51853;DHT22;37894;53.172;6.598;2023-06-26T12:25:14;26.70;80.60
51853;DHT22;37894;53.172;6.598;2023-06-26T12:27:40;26.50;80.80
51853;DHT22;37894;53.172;6.598;2023-06-26T12:30:06;26.60;81.50
51853;DHT22;37894;53.172;6.598;2023-06-26T12:32:32;26.80;81.40
51853;DHT22;37894;53.172;6.598;2023-06-26T12:34:58;27.00;81.40
51853;DHT22;37894;53.172;6.598;2023-06-26T12:37:24;26.80;79.70
51853;DHT22;37894;53.172;6.598;2023-06-26T12:39:56;26.70;80.60
51853;DHT22;37894;53.172;6.598;2023-06-26T12:42:27;26.70;81.40
51853;DHT22;37894;53.172;6.598;2023-06-26T12:44:54;26.60;79.90
51853;DHT22;37894;53.172;6.598;2023-06-26T12:47:27;26.40;80.40
51853;DHT22;37894;53.172;6.598;2023-06-26T12:49:53;26.30;80.50
51853;DHT22;37894;53.172;6.598;2023-06-26T12:52:20;26.10;80.10
51853;DHT22;37894;53.172;6.598;2023-06-26T12:54:51;26.10;80.50
51853;DHT22;37894;53.172;6.598;2023-06-26T12:57:17;25.80;80.20
51853;DHT22;37894;53.172;6.598;2023-06-26T12:59:43;25.70;80.70
51853;DHT22;37894;53.172;6.598;2023-06-26T13:02:09;25.70;80.90
51853;DHT22;37894;53.172;6.598;2023-06-26T13:04:37;25.60;80.40
51853;DHT22;37894;53.172;6.598;2023-06-26T13:07:09;25.60;81.40
51853;DHT22;37894;53.172;6.598;2023-06-26T13:09:35;25.60;80.10
51853;DHT22;37894;53.172;6.598;2023-06-26T13:12:03;25.50;81.10
51853;DHT22;37894;53.172;6.598;2023-06-26T13:14:30;25.40;81.60
51853;DHT22;37894;53.172;6.598;2023-06-26T13:16:55;25.10;81.20
51853;DHT22;37894;53.172;6.598;2023-06-26T13:19:21;25.00;81.30
51853;DHT22;37894;53.172;6.598;2023-06-26T13:21:47;24.90;81.50
51853;DHT22;37894;53.172;6.598;2023-06-26T13:24:13;24.90;81.70
51853;DHT22;37894;53.172;6.598;2023-06-26T13:26:39;24.90;82.50
51853;DHT22;37894;53.172;6.598;2023-06-26T13:29:05;25.10;82.50
51853;DHT22;37894;53.172;6.598;2023-06-26T13:31:31;25.30;82.80
51853;DHT22;37894;53.172;6.598;2023-06-26T13:33:58;25.40;82.90
51853;DHT22;37894;53.172;6.598;2023-06-26T13:36:24;25.20;82.50
51853;DHT22;37894;53.172;6.598;2023-06-26T13:38:50;25.10;82.20
51853;DHT22;37894;53.172;6.598;2023-06-26T13:41:22;25.10;82.30
51853;DHT22;37894;53.172;6.598;2023-06-26T13:43:48;25.00;81.80
51853;DHT22;37894;53.172;6.598;2023-06-26T13:46:13;24.70;82.30
51853;DHT22;37894;53.172;6.598;2023-06-26T13:48:39;24.80;81.90
51853;DHT22;37894;53.172;6.598;2023-06-26T13:51:05;24.70;81.70
51853;DHT22;37894;53.172;6.598;2023-06-26T13:53:30;24.70;82.10
51853;DHT22;37894;53.172;6.598;2023-06-26T13:55:56;24.60;81.60
51853;DHT22;37894;53.172;6.598;2023-06-26T13:58:22;24.60;82.30
51853;DHT22;37894;53.172;6.598;2023-06-26T14:00:49;24.90;83.20
51853;DHT22;37894;53.172;6.598;2023-06-26T14:03:15;25.20;83.00
51853;DHT22;37894;53.172;6.598;2023-06-26T14:05:41;25.40;82.20
51853;DHT22;37894;53.172;6.598;2023-06-26T14:08:08;25.10;81.50
51853;DHT22;37894;53.172;6.598;2023-06-26T14:10:34;24.90;82.90
51853;DHT22;37894;53.172;6.598;2023-06-26T14:13:03;24.90;82.80
51853;DHT22;37894;53.172;6.598;2023-06-26T14:15:29;24.70;83.70
51853;DHT22;37894;53.172;6.598;2023-06-26T14:17:55;24.60;84.70
51853;DHT22;37894;53.172;6.598;2023-06-26T14:20:21;24.60;84.70
51853;DHT22;37894;53.172;6.598;2023-06-26T14:22:48;24.60;85.90
51853;DHT22;37894;53.172;6.598;2023-06-26T14:25:15;24.60;85.90
51853;DHT22;37894;53.172;6.598;2023-06-26T14:27:40;24.90;86.00
51853;DHT22;37894;53.172;6.598;2023-06-26T14:30:07;25.30;85.20
51853;DHT22;37894;53.172;6.598;2023-06-26T14:32:34;25.60;83.00
51853;DHT22;37894;53.172;6.598;2023-06-26T14:35:00;25.70;82.00
51853;DHT22;37894;53.172;6.598;2023-06-26T14:37:28;25.80;81.00
51853;DHT22;37894;53.172;6.598;2023-06-26T14:39:54;25.70;79.20
51853;DHT22;37894;53.172;6.598;2023-06-26T14:42:19;25.70;80.30
51853;DHT22;37894;53.172;6.598;2023-06-26T14:44:45;25.90;79.90
51853;DHT22;37894;53.172;6.598;2023-06-26T14:47:13;25.90;80.20
51853;DHT22;37894;53.172;6.598;2023-06-26T14:49:40;25.70;79.60
51853;DHT22;37894;53.172;6.598;2023-06-26T14:52:06;25.40;79.80
51853;DHT22;37894;53.172;6.598;2023-06-26T14:54:31;25.00;80.40
51853;DHT22;37894;53.172;6.598;2023-06-26T14:56:58;24.70;81.60
51853;DHT22;37894;53.172;6.598;2023-06-26T14:59:24;24.70;82.30
51853;DHT22;37894;53.172;6.598;2023-06-26T15:01:49;24.60;81.90
51853;DHT22;37894;53.172;6.598;2023-06-26T15:04:18;24.40;81.30
51853;DHT22;37894;53.172;6.598;2023-06-26T15:06:44;24.20;82.10
51853;DHT22;37894;53.172;6.598;2023-06-26T15:09:10;24.10;81.40
51853;DHT22;37894;53.172;6.598;2023-06-26T15:11:41;24.10;81.40
51853;DHT22;37894;53.172;6.598;2023-06-26T15:14:08;23.40;81.30
51853;DHT22;37894;53.172;6.598;2023-06-26T15:16:34;24.00;82.20
51853;DHT22;37894;53.172;6.598;2023-06-26T15:19:00;24.00;82.90
51853;DHT22;37894;53.172;6.598;2023-06-26T15:21:26;23.90;84.30
51853;DHT22;37894;53.172;6.598;2023-06-26T15:23:52;23.70;84.60
51853;DHT22;37894;53.172;6.598;2023-06-26T15:26:17;23.50;85.90
51853;DHT22;37894;53.172;6.598;2023-06-26T15:28:43;23.40;86.30
51853;DHT22;37894;53.172;6.598;2023-06-26T15:31:09;23.40;86.90
51853;DHT22;37894;53.172;6.598;2023-06-26T15:33:34;23.30;86.30